sensor_id;sensor_type;location;lat;lon;timestamp;temperature;humidity
49579;DHT22;35483;50.828;3.228;2023-04-25T00:01:17;10.80;97.20
49579;DHT22;35483;50.828;3.228;2023-04-25T00:03:42;10.70;97.10
49579;DHT22;35483;50.828;3.228;2023-04-25T00:06:09;10.70;97.20
49579;DHT22;35483;50.828;3.228;2023-04-25T00:08:35;10.60;97.30
49579;DHT22;35483;50.828;3.228;2023-04-25T00:11:01;10.60;97.30
49579;DHT22;35483;50.828;3.228;2023-04-25T00:13:27;10.60;97.30
49579;DHT22;35483;50.828;3.228;2023-04-25T00:15:53;10.60;97.20
49579;DHT22;35483;50.828;3.228;2023-04-25T00:18:19;10.70;97.20
49579;DHT22;35483;50.828;3.228;2023-04-25T00:20:45;10.70;97.20
49579;DHT22;35483;50.828;3.228;2023-04-25T00:23:16;10.70;97.30
49579;DHT22;35483;50.828;3.228;2023-04-25T00:25:46;10.60;97.40
49579;DHT22;35483;50.828;3.228;2023-04-25T00:28:12;10.60;97.50
49579;DHT22;35483;50.828;3.228;2023-04-25T00:30:39;10.60;97.40
49579;DHT22;35483;50.828;3.228;2023-04-25T00:33:05;10.60;97.50
49579;DHT22;35483;50.828;3.228;2023-04-25T00:35:31;10.50;97.60
49579;DHT22;35483;50.828;3.228;2023-04-25T00:37:56;10.50;97.70
49579;DHT22;35483;50.828;3.228;2023-04-25T00:40:22;10.50;97.70
49579;DHT22;35483;50.828;3.228;2023-04-25T00:42:49;10.40;97.80
49579;DHT22;35483;50.828;3.228;2023-04-25T00:45:17;10.30;98.10
49579;DHT22;35483;50.828;3.228;2023-04-25T00:47:43;10.30;98.00
49579;DHT22;35483;50.828;3.228;2023-04-25T00:50:10;10.30;98.00
49579;DHT22;35483;50.828;3.228;2023-04-25T00:52:39;10.20;97.90
49579;DHT22;35483;50.828;3.228;2023-04-25T00:55:06;10.00;98.50
49579;DHT22;35483;50.828;3.228;2023-04-25T00:57:32;9.80;98.30
49579;DHT22;35483;50.828;3.228;2023-04-25T00:59:59;9.70;98.50
49579;DHT22;35483;50.828;3.228;2023-04-25T01:02:26;9.60;98.40
49579;DHT22;35483;50.828;3.228;2023-04-25T01:04:52;9.50;98.60
49579;DHT22;35483;50.828;3.228;2023-04-25T01:07:18;9.40;98.30
49579;DHT22;35483;50.828;3.228;2023-04-25T01:09:44;9.40;98.60
49579;DHT22;35483;50.828;3.228;2023-04-25T01:12:11;9.40;98.70
49579;DHT22;35483;50.828;3.228;2023-04-25T01:14:37;9.40;98.70
49579;DHT22;35483;50.828;3.228;2023-04-25T01:17:02;9.40;98.60
49579;DHT22;35483;50.828;3.228;2023-04-25T01:19:28;9.40;98.70
49579;DHT22;35483;50.828;3.228;2023-04-25T01:21:54;9.40;98.80
49579;DHT22;35483;50.828;3.228;2023-04-25T01:24:20;9.40;98.80
49579;DHT22;35483;50.828;3.228;2023-04-25T01:26:46;9.50;98.70
49579;DHT22;35483;50.828;3.228;2023-04-25T01:29:17;9.50;98.50
49579;DHT22;35483;50.828;3.228;2023-04-25T01:31:43;9.60;98.60
49579;DHT22;35483;50.828;3.228;2023-04-25T01:34:10;9.60;98.70
49579;DHT22;35483;50.828;3.228;2023-04-25T01:36:36;9.60;98.50
49579;DHT22;35483;50.828;3.228;2023-04-25T01:39:02;9.60;98.70
49579;DHT22;35483;50.828;3.228;2023-04-25T01:41:28;9.50;99.00
49579;DHT22;35483;50.828;3.228;2023-04-25T01:43:54;9.50;98.50
49579;DHT22;35483;50.828;3.228;2023-04-25T01:46:20;9.50;98.50
49579;DHT22;35483;50.828;3.228;2023-04-25T01:48:46;9.50;98.60
49579;DHT22;35483;50.828;3.228;2023-04-25T01:51:12;9.50;98.90
49579;DHT22;35483;50.828;3.228;2023-04-25T01:53:38;9.40;98.70
49579;DHT22;35483;50.828;3.228;2023-04-25T01:56:05;9.40;98.60
49579;DHT22;35483;50.828;3.228;2023-04-25T01:58:30;9.50;98.60
49579;DHT22;35483;50.828;3.228;2023-04-25T02:00:56;9.50;98.70
49579;DHT22;35483;50.828;3.228;2023-04-25T02:03:22;9.50;98.80
49579;DHT22;35483;50.828;3.228;2023-04-25T02:05:48;9.50;99.00
49579;DHT22;35483;50.828;3.228;2023-04-25T02:08:14;9.50;98.70
49579;DHT22;35483;50.828;3.228;2023-04-25T02:10:39;9.50;98.70
49579;DHT22;35483;50.828;3.228;2023-04-25T02:13:05;9.50;99.10
49579;DHT22;35483;50.828;3.228;2023-04-25T02:15:31;9.50;98.90
49579;DHT22;35483;50.828;3.228;2023-04-25T02:17:57;9.50;98.70
49579;DHT22;35483;50.828;3.228;2023-04-25T02:20:26;9.60;98.50
49579;DHT22;35483;50.828;3.228;2023-04-25T02:22:52;9.60;98.50
49579;DHT22;35483;50.828;3.228;2023-04-25T02:25:18;9.60;98.50
49579;DHT22;35483;50.828;3.228;2023-04-25T02:27:46;9.60;98.50
49579;DHT22;35483;50.828;3.228;2023-04-25T02:30:12;9.60;98.50
49579;DHT22;35483;50.828;3.228;2023-04-25T02:32:39;9.60;98.50
49579;DHT22;35483;50.828;3.228;2023-04-25T02:35:05;9.60;98.50
49579;DHT22;35483;50.828;3.228;2023-04-25T02:37:32;9.60;98.60
49579;DHT22;35483;50.828;3.228;2023-04-25T02:39:58;9.60;98.40
49579;DHT22;35483;50.828;3.228;2023-04-25T02:42:24;9.70;98.30
49579;DHT22;35483;50.828;3.228;2023-04-25T02:44:50;9.70;98.40
49579;DHT22;35483;50.828;3.228;2023-04-25T02:47:15;9.60;98.20
49579;DHT22;35483;50.828;3.228;2023-04-25T02:49:41;9.50;98.40
49579;DHT22;35483;50.828;3.228;2023-04-25T02:52:07;9.50;98.40
49579;DHT22;35483;50.828;3.228;2023-04-25T02:54:33;9.50;98.20
49579;DHT22;35483;50.828;3.228;2023-04-25T02:56:58;9.50;98.10
49579;DHT22;35483;50.828;3.228;2023-04-25T02:59:24;9.50;98.00
49579;DHT22;35483;50.828;3.228;2023-04-25T03:01:50;9.50;97.90
49579;DHT22;35483;50.828;3.228;2023-04-25T03:04:15;9.50;98.00
49579;DHT22;35483;50.828;3.228;2023-04-25T03:06:41;9.50;98.00
49579;DHT22;35483;50.828;3.228;2023-04-25T03:09:07;9.40;98.00
49579;DHT22;35483;50.828;3.228;2023-04-25T03:11:33;9.40;98.30
49579;DHT22;35483;50.828;3.228;2023-04-25T03:13:58;9.30;98.20
49579;DHT22;35483;50.828;3.228;2023-04-25T03:16:24;9.30;98.00
49579;DHT22;35483;50.828;3.228;2023-04-25T03:18:50;9.30;98.10
49579;DHT22;35483;50.828;3.228;2023-04-25T03:21:16;9.20;98.20
49579;DHT22;35483;50.828;3.228;2023-04-25T03:23:42;9.20;98.20
49579;DHT22;35483;50.828;3.228;2023-04-25T03:26:08;9.20;98.10
49579;DHT22;35483;50.828;3.228;2023-04-25T03:28:33;9.30;98.20
49579;DHT22;35483;50.828;3.228;2023-04-25T03:30:59;9.30;98.20
49579;DHT22;35483;50.828;3.228;2023-04-25T03:33:25;9.20;98.20
49579;DHT22;35483;50.828;3.228;2023-04-25T03:35:51;9.30;98.10
49579;DHT22;35483;50.828;3.228;2023-04-25T03:38:17;9.30;98.20
49579;DHT22;35483;50.828;3.228;2023-04-25T03:40:42;9.20;98.20
49579;DHT22;35483;50.828;3.228;2023-04-25T03:43:08;9.20;98.20
49579;DHT22;35483;50.828;3.228;2023-04-25T03:45:34;9.20;98.30
49579;DHT22;35483;50.828;3.228;2023-04-25T03:48:00;9.10;98.10
49579;DHT22;35483;50.828;3.228;2023-04-25T03:50:25;9.10;98.20
49579;DHT22;35483;50.828;3.228;2023-04-25T03:52:51;9.10;98.00
49579;DHT22;35483;50.828;3.228;2023-04-25T03:55:17;9.00;97.90
49579;DHT22;35483;50.828;3.228;2023-04-25T03:57:43;9.10;97.90
49579;DHT22;35483;50.828;3.228;2023-04-25T04:00:10;9.00;97.90
49579;DHT22;35483;50.828;3.228;2023-04-25T04:02:35;9.00;97.90
49579;DHT22;35483;50.828;3.228;2023-04-25T04:05:03;8.90;97.90
49579;DHT22;35483;50.828;3.228;2023-04-25T04:07:29;8.90;97.90
49579;DHT22;35483;50.828;3.228;2023-04-25T04:09:55;8.90;97.80
49579;DHT22;35483;50.828;3.228;2023-04-25T04:12:20;8.90;97.90
49579;DHT22;35483;50.828;3.228;2023-04-25T04:14:46;8.90;97.80
49579;DHT22;35483;50.828;3.228;2023-04-25T04:17:12;9.00;97.70
49579;DHT22;35483;50.828;3.228;2023-04-25T04:19:38;9.00;97.60
49579;DHT22;35483;50.828;3.228;2023-04-25T04:22:04;9.00;97.70
49579;DHT22;35483;50.828;3.228;2023-04-25T04:24:30;9.00;97.80
49579;DHT22;35483;50.828;3.228;2023-04-25T04:26:55;9.00;97.70
49579;DHT22;35483;50.828;3.228;2023-04-25T04:29:22;9.00;97.80
49579;DHT22;35483;50.828;3.228;2023-04-25T04:31:51;8.90;97.90
49579;DHT22;35483;50.828;3.228;2023-04-25T04:34:18;8.90;97.70
49579;DHT22;35483;50.828;3.228;2023-04-25T04:36:44;8.90;97.70
49579;DHT22;35483;50.828;3.228;2023-04-25T04:39:13;8.90;97.70
49579;DHT22;35483;50.828;3.228;2023-04-25T04:41:39;8.90;97.60
49579;DHT22;35483;50.828;3.228;2023-04-25T04:44:05;8.80;97.70
49579;DHT22;35483;50.828;3.228;2023-04-25T04:46:32;8.80;97.70
49579;DHT22;35483;50.828;3.228;2023-04-25T04:49:10;8.70;97.90
49579;DHT22;35483;50.828;3.228;2023-04-25T04:51:37;8.70;97.80
49579;DHT22;35483;50.828;3.228;2023-04-25T04:54:03;8.70;98.00
49579;DHT22;35483;50.828;3.228;2023-04-25T04:56:29;8.70;98.10
49579;DHT22;35483;50.828;3.228;2023-04-25T04:58:57;8.70;97.90
49579;DHT22;35483;50.828;3.228;2023-04-25T05:01:23;8.80;97.70
49579;DHT22;35483;50.828;3.228;2023-04-25T05:03:49;8.70;97.70
49579;DHT22;35483;50.828;3.228;2023-04-25T05:06:17;8.70;97.70
49579;DHT22;35483;50.828;3.228;2023-04-25T05:08:43;8.70;97.60
49579;DHT22;35483;50.828;3.228;2023-04-25T05:11:09;8.70;97.70
49579;DHT22;35483;50.828;3.228;2023-04-25T05:13:35;8.60;97.70
49579;DHT22;35483;50.828;3.228;2023-04-25T05:16:00;8.70;97.60
49579;DHT22;35483;50.828;3.228;2023-04-25T05:18:26;8.70;97.50
49579;DHT22;35483;50.828;3.228;2023-04-25T05:20:52;8.70;97.50
49579;DHT22;35483;50.828;3.228;2023-04-25T05:23:18;8.80;97.40
49579;DHT22;35483;50.828;3.228;2023-04-25T05:25:44;8.80;97.40
49579;DHT22;35483;50.828;3.228;2023-04-25T05:28:13;8.90;97.40
49579;DHT22;35483;50.828;3.228;2023-04-25T05:30:39;9.00;97.40
49579;DHT22;35483;50.828;3.228;2023-04-25T05:33:05;9.10;97.30
49579;DHT22;35483;50.828;3.228;2023-04-25T05:35:32;9.10;97.20
49579;DHT22;35483;50.828;3.228;2023-04-25T05:37:58;9.10;97.10
49579;DHT22;35483;50.828;3.228;2023-04-25T05:40:23;9.10;97.20
49579;DHT22;35483;50.828;3.228;2023-04-25T05:42:49;9.20;97.20
49579;DHT22;35483;50.828;3.228;2023-04-25T05:45:14;9.20;97.00
49579;DHT22;35483;50.828;3.228;2023-04-25T05:47:40;9.20;97.10
49579;DHT22;35483;50.828;3.228;2023-04-25T05:50:07;9.20;97.10
49579;DHT22;35483;50.828;3.228;2023-04-25T05:52:34;9.20;97.10
49579;DHT22;35483;50.828;3.228;2023-04-25T05:55:00;9.30;97.10
49579;DHT22;35483;50.828;3.228;2023-04-25T05:57:26;9.30;97.00
49579;DHT22;35483;50.828;3.228;2023-04-25T05:59:53;9.30;97.10
49579;DHT22;35483;50.828;3.228;2023-04-25T06:02:20;9.40;97.00
49579;DHT22;35483;50.828;3.228;2023-04-25T06:04:48;9.50;97.00
49579;DHT22;35483;50.828;3.228;2023-04-25T06:07:14;9.50;97.00
49579;DHT22;35483;50.828;3.228;2023-04-25T06:09:40;9.50;96.90
49579;DHT22;35483;50.828;3.228;2023-04-25T06:12:06;9.60;96.80
49579;DHT22;35483;50.828;3.228;2023-04-25T06:14:33;9.50;96.80
49579;DHT22;35483;50.828;3.228;2023-04-25T06:16:59;9.50;97.00
49579;DHT22;35483;50.828;3.228;2023-04-25T06:19:25;9.60;96.90
49579;DHT22;35483;50.828;3.228;2023-04-25T06:21:51;9.60;97.00
49579;DHT22;35483;50.828;3.228;2023-04-25T06:24:16;9.60;96.80
49579;DHT22;35483;50.828;3.228;2023-04-25T06:26:42;9.60;96.80
49579;DHT22;35483;50.828;3.228;2023-04-25T06:29:08;9.60;96.90
49579;DHT22;35483;50.828;3.228;2023-04-25T06:31:34;9.60;96.70
49579;DHT22;35483;50.828;3.228;2023-04-25T06:34:00;9.60;96.60
49579;DHT22;35483;50.828;3.228;2023-04-25T06:36:26;9.60;96.60
49579;DHT22;35483;50.828;3.228;2023-04-25T06:38:53;9.60;96.70
49579;DHT22;35483;50.828;3.228;2023-04-25T06:41:20;9.60;96.70
49579;DHT22;35483;50.828;3.228;2023-04-25T06:43:45;9.60;96.40
49579;DHT22;35483;50.828;3.228;2023-04-25T06:46:11;9.60;96.60
49579;DHT22;35483;50.828;3.228;2023-04-25T06:48:37;9.70;96.40
49579;DHT22;35483;50.828;3.228;2023-04-25T06:51:03;9.70;96.40
49579;DHT22;35483;50.828;3.228;2023-04-25T06:53:29;9.70;96.30
49579;DHT22;35483;50.828;3.228;2023-04-25T06:55:55;9.70;96.40
49579;DHT22;35483;50.828;3.228;2023-04-25T06:58:20;9.80;96.40
49579;DHT22;35483;50.828;3.228;2023-04-25T07:00:46;9.90;96.30
49579;DHT22;35483;50.828;3.228;2023-04-25T07:03:12;9.90;96.20
49579;DHT22;35483;50.828;3.228;2023-04-25T07:05:38;10.00;96.40
49579;DHT22;35483;50.828;3.228;2023-04-25T07:08:03;10.10;96.20
49579;DHT22;35483;50.828;3.228;2023-04-25T07:10:29;10.10;96.30
49579;DHT22;35483;50.828;3.228;2023-04-25T07:12:55;10.20;96.10
49579;DHT22;35483;50.828;3.228;2023-04-25T07:15:21;10.30;96.10
49579;DHT22;35483;50.828;3.228;2023-04-25T07:17:47;10.40;95.80
49579;DHT22;35483;50.828;3.228;2023-04-25T07:20:13;10.60;95.90
49579;DHT22;35483;50.828;3.228;2023-04-25T07:22:39;10.70;95.80
49579;DHT22;35483;50.828;3.228;2023-04-25T07:25:07;10.80;95.80
49579;DHT22;35483;50.828;3.228;2023-04-25T07:27:34;10.80;95.40
49579;DHT22;35483;50.828;3.228;2023-04-25T07:29:59;10.80;95.70
49579;DHT22;35483;50.828;3.228;2023-04-25T07:32:25;10.90;95.40
49579;DHT22;35483;50.828;3.228;2023-04-25T07:34:52;10.90;95.40
49579;DHT22;35483;50.828;3.228;2023-04-25T07:37:17;11.10;95.50
49579;DHT22;35483;50.828;3.228;2023-04-25T07:39:44;11.30;95.50
49579;DHT22;35483;50.828;3.228;2023-04-25T07:42:11;11.40;94.70
49579;DHT22;35483;50.828;3.228;2023-04-25T07:44:37;11.50;94.90
49579;DHT22;35483;50.828;3.228;2023-04-25T07:47:07;11.60;94.80
49579;DHT22;35483;50.828;3.228;2023-04-25T07:49:34;11.60;94.90
49579;DHT22;35483;50.828;3.228;2023-04-25T07:52:01;11.70;94.60
49579;DHT22;35483;50.828;3.228;2023-04-25T07:54:27;11.50;94.60
49579;DHT22;35483;50.828;3.228;2023-04-25T07:56:53;11.60;94.20
49579;DHT22;35483;50.828;3.228;2023-04-25T07:59:19;11.40;94.10
49579;DHT22;35483;50.828;3.228;2023-04-25T08:01:45;11.30;94.60
49579;DHT22;35483;50.828;3.228;2023-04-25T08:04:10;11.10;94.20
49579;DHT22;35483;50.828;3.228;2023-04-25T08:06:36;11.10;94.60
49579;DHT22;35483;50.828;3.228;2023-04-25T08:09:02;11.00;94.70
49579;DHT22;35483;50.828;3.228;2023-04-25T08:11:29;11.10;95.00
49579;DHT22;35483;50.828;3.228;2023-04-25T08:13:55;11.20;94.50
49579;DHT22;35483;50.828;3.228;2023-04-25T08:16:21;11.30;93.60
49579;DHT22;35483;50.828;3.228;2023-04-25T08:18:47;11.40;94.00
49579;DHT22;35483;50.828;3.228;2023-04-25T08:21:13;11.60;93.60
49579;DHT22;35483;50.828;3.228;2023-04-25T08:23:39;11.80;94.20
49579;DHT22;35483;50.828;3.228;2023-04-25T08:26:05;11.70;94.30
49579;DHT22;35483;50.828;3.228;2023-04-25T08:28:31;11.70;94.30
49579;DHT22;35483;50.828;3.228;2023-04-25T08:30:57;11.30;94.30
49579;DHT22;35483;50.828;3.228;2023-04-25T08:33:23;10.90;95.10
49579;DHT22;35483;50.828;3.228;2023-04-25T08:35:48;10.70;95.60
49579;DHT22;35483;50.828;3.228;2023-04-25T08:38:14;10.60;95.10
49579;DHT22;35483;50.828;3.228;2023-04-25T08:43:10;10.40;95.60
49579;DHT22;35483;50.828;3.228;2023-04-25T08:45:42;10.60;95.50
49579;DHT22;35483;50.828;3.228;2023-04-25T08:48:12;10.80;95.20
49579;DHT22;35483;50.828;3.228;2023-04-25T08:50:56;10.90;94.70
49579;DHT22;35483;50.828;3.228;2023-04-25T08:53:29;11.00;93.70
49579;DHT22;35483;50.828;3.228;2023-04-25T08:55:56;11.00;94.30
49579;DHT22;35483;50.828;3.228;2023-04-25T08:58:23;11.00;94.50
49579;DHT22;35483;50.828;3.228;2023-04-25T09:00:49;11.10;94.20
49579;DHT22;35483;50.828;3.228;2023-04-25T09:03:16;11.30;94.20
49579;DHT22;35483;50.828;3.228;2023-04-25T09:05:42;11.50;94.40
49579;DHT22;35483;50.828;3.228;2023-04-25T09:08:08;11.60;94.60
49579;DHT22;35483;50.828;3.228;2023-04-25T09:10:34;11.70;94.30
49579;DHT22;35483;50.828;3.228;2023-04-25T09:13:08;11.80;93.20
49579;DHT22;35483;50.828;3.228;2023-04-25T09:15:48;11.90;93.30
49579;DHT22;35483;50.828;3.228;2023-04-25T09:18:31;11.90;93.30
49579;DHT22;35483;50.828;3.228;2023-04-25T09:21:17;12.00;94.00
49579;DHT22;35483;50.828;3.228;2023-04-25T09:23:48;11.90;92.30
49579;DHT22;35483;50.828;3.228;2023-04-25T09:26:15;11.70;94.10
49579;DHT22;35483;50.828;3.228;2023-04-25T09:28:42;11.50;94.20
49579;DHT22;35483;50.828;3.228;2023-04-25T09:31:10;11.20;94.40
49579;DHT22;35483;50.828;3.228;2023-04-25T09:33:37;11.10;94.30
49579;DHT22;35483;50.828;3.228;2023-04-25T09:36:08;11.00;94.40
49579;DHT22;35483;50.828;3.228;2023-04-25T09:38:42;11.00;93.80
49579;DHT22;35483;50.828;3.228;2023-04-25T09:41:09;11.10;94.00
49579;DHT22;35483;50.828;3.228;2023-04-25T09:43:36;11.20;94.50
49579;DHT22;35483;50.828;3.228;2023-04-25T09:46:02;11.20;94.30
49579;DHT22;35483;50.828;3.228;2023-04-25T09:48:29;11.20;94.30
49579;DHT22;35483;50.828;3.228;2023-04-25T09:51:14;11.40;93.00
49579;DHT22;35483;50.828;3.228;2023-04-25T09:53:42;11.30;91.10
49579;DHT22;35483;50.828;3.228;2023-04-25T09:56:10;11.30;93.80
49579;DHT22;35483;50.828;3.228;2023-04-25T09:58:38;11.30;93.30
49579;DHT22;35483;50.828;3.228;2023-04-25T10:01:06;11.20;93.40
49579;DHT22;35483;50.828;3.228;2023-04-25T10:03:41;11.10;92.00
49579;DHT22;35483;50.828;3.228;2023-04-25T10:06:12;11.10;92.80
49579;DHT22;35483;50.828;3.228;2023-04-25T10:08:38;11.10;90.00
49579;DHT22;35483;50.828;3.228;2023-04-25T10:11:08;11.20;93.60
49579;DHT22;35483;50.828;3.228;2023-04-25T10:13:35;11.30;93.40
49579;DHT22;35483;50.828;3.228;2023-04-25T10:16:03;11.50;93.50
49579;DHT22;35483;50.828;3.228;2023-04-25T10:18:30;11.70;93.30
49579;DHT22;35483;50.828;3.228;2023-04-25T10:20:59;11.70;93.20
49579;DHT22;35483;50.828;3.228;2023-04-25T10:23:25;11.90;93.10
49579;DHT22;35483;50.828;3.228;2023-04-25T10:25:52;11.90;91.70
49579;DHT22;35483;50.828;3.228;2023-04-25T10:28:18;11.70;91.80
49579;DHT22;35483;50.828;3.228;2023-04-25T10:31:07;11.80;92.60
49579;DHT22;35483;50.828;3.228;2023-04-25T10:33:38;12.00;87.10
49579;DHT22;35483;50.828;3.228;2023-04-25T10:36:17;12.20;84.80
49579;DHT22;35483;50.828;3.228;2023-04-25T10:38:44;12.30;86.00
49579;DHT22;35483;50.828;3.228;2023-04-25T10:41:11;12.60;92.00
49579;DHT22;35483;50.828;3.228;2023-04-25T10:43:43;12.90;90.20
49579;DHT22;35483;50.828;3.228;2023-04-25T10:46:26;13.00;91.90
49579;DHT22;35483;50.828;3.228;2023-04-25T10:48:56;13.00;90.30
49579;DHT22;35483;50.828;3.228;2023-04-25T10:51:33;12.90;92.80
49579;DHT22;35483;50.828;3.228;2023-04-25T10:54:03;12.80;92.30
49579;DHT22;35483;50.828;3.228;2023-04-25T10:56:31;12.80;92.20
49579;DHT22;35483;50.828;3.228;2023-04-25T10:59:12;12.70;92.20
49579;DHT22;35483;50.828;3.228;2023-04-25T11:01:51;12.80;92.80
49579;DHT22;35483;50.828;3.228;2023-04-25T11:04:24;12.80;92.60
49579;DHT22;35483;50.828;3.228;2023-04-25T11:09:28;12.90;92.40
49579;DHT22;35483;50.828;3.228;2023-04-25T11:11:58;12.90;93.00
49579;DHT22;35483;50.828;3.228;2023-04-25T11:14:25;12.80;90.50
49579;DHT22;35483;50.828;3.228;2023-04-25T11:16:57;12.70;92.80
49579;DHT22;35483;50.828;3.228;2023-04-25T11:19:24;12.70;90.80
49579;DHT22;35483;50.828;3.228;2023-04-25T11:21:50;12.70;89.40
49579;DHT22;35483;50.828;3.228;2023-04-25T11:24:21;12.90;92.30
49579;DHT22;35483;50.828;3.228;2023-04-25T11:26:50;13.00;92.50
49579;DHT22;35483;50.828;3.228;2023-04-25T11:29:17;13.10;91.50
49579;DHT22;35483;50.828;3.228;2023-04-25T11:31:45;13.20;92.10
49579;DHT22;35483;50.828;3.228;2023-04-25T11:34:11;13.30;89.20
49579;DHT22;35483;50.828;3.228;2023-04-25T11:36:38;13.30;91.60
49579;DHT22;35483;50.828;3.228;2023-04-25T11:39:04;13.40;91.30
49579;DHT22;35483;50.828;3.228;2023-04-25T11:41:31;13.40;91.40
49579;DHT22;35483;50.828;3.228;2023-04-25T11:43:57;13.40;87.60
49579;DHT22;35483;50.828;3.228;2023-04-25T11:46:23;13.20;90.30
49579;DHT22;35483;50.828;3.228;2023-04-25T11:48:48;13.10;91.20
49579;DHT22;35483;50.828;3.228;2023-04-25T11:51:16;12.90;91.40
49579;DHT22;35483;50.828;3.228;2023-04-25T11:53:44;13.00;90.60
49579;DHT22;35483;50.828;3.228;2023-04-25T11:56:10;13.00;90.80
49579;DHT22;35483;50.828;3.228;2023-04-25T11:59:05;13.00;90.30
49579;DHT22;35483;50.828;3.228;2023-04-25T12:01:35;13.20;86.30
49579;DHT22;35483;50.828;3.228;2023-04-25T12:06:45;13.10;72.90
49579;DHT22;35483;50.828;3.228;2023-04-25T12:09:15;13.30;90.70
49579;DHT22;35483;50.828;3.228;2023-04-25T12:11:48;13.30;88.10
49579;DHT22;35483;50.828;3.228;2023-04-25T12:14:22;13.30;89.00
49579;DHT22;35483;50.828;3.228;2023-04-25T12:16:54;13.10;83.20
49579;DHT22;35483;50.828;3.228;2023-04-25T12:19:21;13.20;89.60
49579;DHT22;35483;50.828;3.228;2023-04-25T12:21:47;13.00;86.60
49579;DHT22;35483;50.828;3.228;2023-04-25T12:26:48;12.90;83.60
49579;DHT22;35483;50.828;3.228;2023-04-25T12:29:17;12.80;87.20
49579;DHT22;35483;50.828;3.228;2023-04-25T12:31:42;12.70;86.90
49579;DHT22;35483;50.828;3.228;2023-04-25T12:34:09;12.70;82.20
49579;DHT22;35483;50.828;3.228;2023-04-25T12:36:35;12.70;89.90
49579;DHT22;35483;50.828;3.228;2023-04-25T12:39:01;12.50;85.00
49579;DHT22;35483;50.828;3.228;2023-04-25T12:41:30;12.50;90.30
49579;DHT22;35483;50.828;3.228;2023-04-25T12:43:56;12.40;87.50
49579;DHT22;35483;50.828;3.228;2023-04-25T12:46:23;12.40;86.40
49579;DHT22;35483;50.828;3.228;2023-04-25T12:48:52;12.40;90.70
49579;DHT22;35483;50.828;3.228;2023-04-25T12:51:18;12.50;90.80
49579;DHT22;35483;50.828;3.228;2023-04-25T12:53:44;12.60;87.70
49579;DHT22;35483;50.828;3.228;2023-04-25T12:56:09;12.60;90.20
49579;DHT22;35483;50.828;3.228;2023-04-25T12:58:36;12.60;90.20
49579;DHT22;35483;50.828;3.228;2023-04-25T13:01:01;12.70;90.10
49579;DHT22;35483;50.828;3.228;2023-04-25T13:03:27;12.60;90.80
49579;DHT22;35483;50.828;3.228;2023-04-25T13:05:53;12.50;90.40
49579;DHT22;35483;50.828;3.228;2023-04-25T13:08:19;12.40;90.20
49579;DHT22;35483;50.828;3.228;2023-04-25T13:10:45;12.40;90.40
49579;DHT22;35483;50.828;3.228;2023-04-25T13:13:11;12.20;90.10
49579;DHT22;35483;50.828;3.228;2023-04-25T13:15:36;12.30;89.10
49579;DHT22;35483;50.828;3.228;2023-04-25T13:18:05;12.50;90.60
49579;DHT22;35483;50.828;3.228;2023-04-25T13:20:32;12.80;81.90
49579;DHT22;35483;50.828;3.228;2023-04-25T13:22:57;13.00;81.50
49579;DHT22;35483;50.828;3.228;2023-04-25T13:25:23;12.90;84.10
49579;DHT22;35483;50.828;3.228;2023-04-25T13:27:49;13.00;90.20
49579;DHT22;35483;50.828;3.228;2023-04-25T13:30:15;13.00;89.10
49579;DHT22;35483;50.828;3.228;2023-04-25T13:32:40;13.10;88.60
49579;DHT22;35483;50.828;3.228;2023-04-25T13:35:09;13.20;89.30
49579;DHT22;35483;50.828;3.228;2023-04-25T13:37:35;13.20;86.60
49579;DHT22;35483;50.828;3.228;2023-04-25T13:40:06;13.20;88.50
49579;DHT22;35483;50.828;3.228;2023-04-25T13:42:35;13.30;88.50
49579;DHT22;35483;50.828;3.228;2023-04-25T13:45:02;13.10;78.30
49579;DHT22;35483;50.828;3.228;2023-04-25T13:47:29;13.10;86.40
49579;DHT22;35483;50.828;3.228;2023-04-25T13:49:55;13.10;80.40
49579;DHT22;35483;50.828;3.228;2023-04-25T13:52:21;13.10;89.00
49579;DHT22;35483;50.828;3.228;2023-04-25T13:54:49;13.20;88.00
49579;DHT22;35483;50.828;3.228;2023-04-25T13:57:16;13.10;82.00
49579;DHT22;35483;50.828;3.228;2023-04-25T13:59:42;13.10;88.90
49579;DHT22;35483;50.828;3.228;2023-04-25T14:02:07;13.10;87.60
49579;DHT22;35483;50.828;3.228;2023-04-25T14:04:33;13.10;88.30
49579;DHT22;35483;50.828;3.228;2023-04-25T14:06:59;13.10;87.90
49579;DHT22;35483;50.828;3.228;2023-04-25T14:09:25;13.00;87.30
49579;DHT22;35483;50.828;3.228;2023-04-25T14:11:54;13.10;87.70
49579;DHT22;35483;50.828;3.228;2023-04-25T14:14:21;13.20;85.40
49579;DHT22;35483;50.828;3.228;2023-04-25T14:16:48;13.20;88.50
49579;DHT22;35483;50.828;3.228;2023-04-25T14:19:17;13.10;86.00
49579;DHT22;35483;50.828;3.228;2023-04-25T14:21:43;13.10;88.10
49579;DHT22;35483;50.828;3.228;2023-04-25T14:24:09;13.00;83.50
49579;DHT22;35483;50.828;3.228;2023-04-25T14:26:38;13.10;88.80
49579;DHT22;35483;50.828;3.228;2023-04-25T14:29:05;13.30;89.40
49579;DHT22;35483;50.828;3.228;2023-04-25T14:31:32;13.60;86.90
49579;DHT22;35483;50.828;3.228;2023-04-25T14:33:58;13.70;88.80
49579;DHT22;35483;50.828;3.228;2023-04-25T14:36:23;13.90;87.00
49579;DHT22;35483;50.828;3.228;2023-04-25T14:38:49;14.00;88.10
49579;DHT22;35483;50.828;3.228;2023-04-25T14:41:15;13.80;87.00
49579;DHT22;35483;50.828;3.228;2023-04-25T14:43:41;13.80;88.50
49579;DHT22;35483;50.828;3.228;2023-04-25T14:46:07;13.60;87.00
49579;DHT22;35483;50.828;3.228;2023-04-25T14:48:33;13.60;87.50
49579;DHT22;35483;50.828;3.228;2023-04-25T14:51:00;13.70;88.30
49579;DHT22;35483;50.828;3.228;2023-04-25T14:53:26;13.70;88.10
49579;DHT22;35483;50.828;3.228;2023-04-25T14:55:52;13.70;88.70
49579;DHT22;35483;50.828;3.228;2023-04-25T14:58:19;13.70;87.80
49579;DHT22;35483;50.828;3.228;2023-04-25T15:00:46;13.40;81.30
49579;DHT22;35483;50.828;3.228;2023-04-25T15:03:12;13.20;85.80
49579;DHT22;35483;50.828;3.228;2023-04-25T15:05:39;13.20;87.80
49579;DHT22;35483;50.828;3.228;2023-04-25T15:08:05;13.20;88.90
49579;DHT22;35483;50.828;3.228;2023-04-25T15:10:31;13.40;87.70
49579;DHT22;35483;50.828;3.228;2023-04-25T15:12:57;13.30;85.30
49579;DHT22;35483;50.828;3.228;2023-04-25T15:15:23;13.20;85.90
49579;DHT22;35483;50.828;3.228;2023-04-25T15:17:49;13.10;77.80
49579;DHT22;35483;50.828;3.228;2023-04-25T15:20:15;13.00;87.70
49579;DHT22;35483;50.828;3.228;2023-04-25T15:22:41;13.00;88.40
49579;DHT22;35483;50.828;3.228;2023-04-25T15:25:08;13.10;88.10
49579;DHT22;35483;50.828;3.228;2023-04-25T15:27:35;13.20;88.50
49579;DHT22;35483;50.828;3.228;2023-04-25T15:30:11;13.00;85.30
49579;DHT22;35483;50.828;3.228;2023-04-25T15:32:39;12.90;86.10
49579;DHT22;35483;50.828;3.228;2023-04-25T15:35:06;12.80;86.10
49579;DHT22;35483;50.828;3.228;2023-04-25T15:37:35;12.60;87.60
49579;DHT22;35483;50.828;3.228;2023-04-25T15:40:05;12.60;87.40
49579;DHT22;35483;50.828;3.228;2023-04-25T15:45:01;12.60;83.60
49579;DHT22;35483;50.828;3.228;2023-04-25T15:47:27;12.60;87.30
49579;DHT22;35483;50.828;3.228;2023-04-25T15:49:53;12.60;86.90